Webcams

Webcam1&2         Webcam1 (Zeitraffer 2 Std.)        Webcam2 (Zeitraffer 2 Std.)

Webcam2 - Zeitraffer (die letzten zwei Stunden, Intervall: 10min)
cam2--20171118_175958M
cam2--20171118_180959M
cam2--20171118_181959M
cam2--20171118_182959M
cam2--20171118_183959M
cam2--20171118_184959M
cam2--20171118_185958M
cam2--20171118_190959M
cam2--20171118_191958M
cam2--20171118_192958M
cam2--20171118_193958M
cam2--20171118_194959M
cam2--20171118_195959M
01/13 
start stop bwd fwd

Webcam2 - Aktuell

Lokale Serverzeit 20:00 | 18.11.2017
Webcam-Lageplan

Flugwetter

[source: ADDS]
METAR
LOWL 181850Z AUTO 23009KT 9999 FEW044 BKN046 05/02 Q1018 NOSIG =
TAF
TAF LOWL 181715Z 1818/1918 26010KT 8000 SCT015 BKN040 TX05/1912Z TN03/1905Z TEMPO 1902/1915 28012G25KT -SHRA SCT015TCU BKN020 PROB30 TEMPO 1903/1909 2000 RASN BKN008 =